CheckWX is a tool to help pilots better visualize weather data.  It is not intended as a substitute for an official pre-flight weather briefing.

02:27:58 UTC

LWSK TAF
Skopje Alexander the Great Airport
Skopje, Macedonia
TAF LWSK 222330Z 2300/2324 12012KT 9999 SCT040 OVC070 TEMPO 2300/2306 RA TEMPO 2306/2318 16015G30KT

Apr-23@
00:00 UTC

Apr-23 @ 00:00 UTC

Apr-24@
00:00 UTC

Apr-24 @ 00:00 UTC

TAF LWSK 222330Z 2300/2324 12012KT 9999 SCT040 OVC070
Wind
  • 120° at 12 KTS
Cloud Levels
  • Scattered at 4,000' AGL
  • Overcast at 7,000' AGL

Apr-23@
00:00 UTC

Apr-23 @ 00:00 UTC

Apr-23@
06:00 UTC

Apr-23 @ 06:00 UTC

TEMPO 2300/2306 RA

Temporary

Temporary Changes expected for less than half the time period

Conditions
Rain

Apr-23@
06:00 UTC

Apr-23 @ 06:00 UTC

Apr-23@
18:00 UTC

Apr-23 @ 18:00 UTC

TEMPO 2306/2318 16015G30KT

Temporary

Temporary Changes expected for less than half the time period

Wind
  • 160° at 15 KTS
  • {Gusting to 30 KTS